Time;durP1;ratioP1;P1;durP2;ratioP2;P2;SDS_P1;SDS_P2;PMS_P1;PMS_P2;Temp;Humidity;BMP_temperature;BMP_pressure;BME280_temperature;BME280_humidity;BME280_pressure;Samples;Min_cycle;Max_cycle;Signal;HPM_P1;HPM_P2
2023/02/12 00:01:37;;;;;;;6.03;3.53;;;;;;;18.91;41.49;103746.03;4994266;28;20038;-78
2023/02/12 00:04:03;;;;;;;5.18;2.90;;;;;;;18.92;41.43;103748.59;4994047;28;20030;-75
2023/02/12 00:06:28;;;;;;;5.05;3.25;;;;;;;18.89;41.38;103747.88;5000098;28;20715;-78
2023/02/12 00:08:55;;;;;;;6.45;3.60;;;;;;;18.88;41.29;103743.50;5001060;28;20132;-78
2023/02/12 00:11:23;;;;;;;5.63;3.10;;;;;;;18.89;41.01;103751.38;4993829;28;20042;-76
2023/02/12 00:13:49;;;;;;;5.90;3.10;;;;;;;18.90;41.24;103749.56;4999497;28;20057;-77
2023/02/12 00:16:18;;;;;;;6.05;3.13;;;;;;;18.84;41.39;103742.75;4995026;28;20038;-76
2023/02/12 00:18:44;;;;;;;5.00;2.92;;;;;;;18.82;41.16;103741.94;4993997;28;20034;-77
2023/02/12 00:21:10;;;;;;;6.10;3.38;;;;;;;18.87;41.19;103750.56;4994694;28;20038;-78
2023/02/12 00:23:37;;;;;;;6.20;3.53;;;;;;;18.84;41.00;103746.25;4995624;28;20053;-76
2023/02/12 00:26:06;;;;;;;5.47;3.17;;;;;;;18.82;41.06;103750.72;4994715;28;20042;-76
2023/02/12 00:28:32;;;;;;;6.53;3.25;;;;;;;18.80;40.99;103747.28;4993476;28;20076;-76
2023/02/12 00:30:57;;;;;;;4.78;3.10;;;;;;;18.81;40.96;103748.97;4993118;28;20030;-75
2023/02/12 00:33:22;;;;;;;4.95;3.13;;;;;;;18.77;40.91;103741.22;4993947;28;20490;-74
2023/02/12 00:35:55;;;;;;;6.53;3.50;;;;;;;18.79;40.94;103748.19;4993125;28;20108;-76
2023/02/12 00:38:20;;;;;;;5.88;3.00;;;;;;;18.80;41.26;103763.13;4993859;28;20046;-77
2023/02/12 00:40:46;;;;;;;6.85;3.78;;;;;;;18.75;41.43;103757.13;4993616;28;20042;-75
2023/02/12 00:43:11;;;;;;;6.03;3.20;;;;;;;18.75;41.01;103756.28;4992402;28;20042;-76
2023/02/12 00:45:36;;;;;;;5.75;3.10;;;;;;;18.77;41.02;103755.31;4993134;28;20061;-75
2023/02/12 00:48:02;;;;;;;5.85;3.22;;;;;;;18.75;41.00;103751.00;4993883;28;20585;-75
2023/02/12 00:50:28;;;;;;;5.63;2.90;;;;;;;18.73;40.95;103745.78;4999445;28;20481;-75
2023/02/12 00:52:54;;;;;;;5.75;3.08;;;;;;;18.74;40.85;103750.16;4992697;28;20030;-79
2023/02/12 00:55:19;;;;;;;5.95;3.22;;;;;;;18.75;41.01;103748.34;4994349;28;20034;-77
2023/02/12 00:57:45;;;;;;;5.30;3.15;;;;;;;18.73;40.99;103748.41;4994057;28;20041;-75
2023/02/12 01:00:11;;;;;;;5.45;3.30;;;;;;;18.70;40.90;103742.41;4991992;28;20471;-74
2023/02/12 01:02:36;;;;;;;6.50;3.30;;;;;;;18.63;40.82;103737.34;4999349;28;20066;-75
2023/02/12 01:05:02;;;;;;;4.53;2.70;;;;;;;18.72;40.90;103751.13;4993254;28;20038;-75
2023/02/12 01:07:27;;;;;;;4.88;3.13;;;;;;;18.66;40.68;103744.31;4992787;28;20395;-76
2023/02/12 01:09:52;;;;;;;5.78;3.05;;;;;;;18.70;41.05;103753.81;4992910;28;20491;-76
2023/02/12 01:12:17;;;;;;;5.32;2.97;;;;;;;18.66;40.79;103742.50;4992589;28;20038;-77
2023/02/12 01:14:43;;;;;;;5.25;3.25;;;;;;;18.66;40.76;103745.16;4992962;28;20363;-75
2023/02/12 01:17:08;;;;;;;4.85;2.92;;;;;;;18.69;40.73;103752.09;4990650;28;20049;-79
2023/02/12 01:19:33;;;;;;;5.00;3.33;;;;;;;18.64;40.62;103747.00;4992219;28;21025;-78
2023/02/12 01:21:59;;;;;;;4.85;2.92;;;;;;;18.66;40.69;103739.03;4992010;28;20475;-76
2023/02/12 01:24:24;;;;;;;5.25;2.90;;;;;;;18.64;40.80;103740.84;4991377;28;20466;-75
2023/02/12 01:26:49;;;;;;;5.95;3.03;;;;;;;18.64;40.70;103744.38;4992794;28;20125;-76
2023/02/12 01:29:15;;;;;;;5.28;2.97;;;;;;;18.65;40.81;103753.13;4992003;28;20368;-77
2023/02/12 01:31:41;;;;;;;5.15;3.03;;;;;;;18.64;40.56;103749.66;4992743;28;20026;-75
2023/02/12 01:34:07;;;;;;;5.47;3.30;;;;;;;18.62;40.69;103747.97;4990984;28;20038;-76
2023/02/12 01:36:32;;;;;;;4.72;3.00;;;;;;;18.60;40.68;103745.38;4992627;28;20398;-77
2023/02/12 01:38:58;;;;;;;5.60;2.97;;;;;;;18.61;40.70;103743.59;4992498;28;20038;-78
2023/02/12 01:41:29;;;;;;;5.05;2.97;;;;;;;18.58;40.71;103743.72;4992425;28;20033;-77
2023/02/12 01:44:11;;;;;;;5.40;3.10;;;;;;;18.58;40.72;103743.72;4992526;28;20467;-76
2023/02/12 01:46:37;;;;;;;5.15;3.28;;;;;;;18.57;40.60;103734.94;4992191;28;20375;-76
2023/02/12 01:49:06;;;;;;;4.95;3.00;;;;;;;18.58;40.23;103747.22;4992245;28;20034;-76
2023/02/12 01:51:31;;;;;;;5.30;2.75;;;;;;;18.55;40.50;103734.13;4991795;28;20364;-75
2023/02/12 01:54:01;;;;;;;6.50;3.00;;;;;;;18.57;40.57;103734.09;4992716;28;20104;-76
2023/02/12 01:56:27;;;;;;;5.65;2.83;;;;;;;18.53;40.74;103725.38;4991343;28;20430;-76
2023/02/12 01:58:54;;;;;;;5.47;3.08;;;;;;;18.56;40.63;103740.28;4993090;28;20473;-79
2023/02/12 02:01:24;;;;;;;5.85;2.75;;;;;;;18.53;40.68;103729.81;4988954;28;20131;-77
2023/02/12 02:03:54;;;;;;;6.68;4.32;;;;;;;18.53;40.55;103729.81;4991240;28;20471;-76
2023/02/12 02:06:28;;;;;;;5.03;3.00;;;;;;;18.51;40.26;103729.88;4992575;28;20042;-74
2023/02/12 02:08:55;;;;;;;6.90;2.90;;;;;;;18.52;40.43;103722.81;4992431;28;20036;-79
2023/02/12 02:17:24;;;;;;;5.88;2.90;;;;;;;18.51;40.39;103729.88;4998487;28;20465;-76
2023/02/12 02:20:05;;;;;;;4.45;2.75;;;;;;;18.52;40.39;103730.72;4982591;28;20053;-77
2023/02/12 02:22:37;;;;;;;5.03;2.97;;;;;;;18.48;40.31;103732.63;4999108;28;20249;-75
2023/02/12 02:25:05;;;;;;;5.70;2.95;;;;;;;18.50;40.34;103730.81;4997845;28;20076;-75
2023/02/12 02:27:49;;;;;;;4.43;2.78;;;;;;;18.51;40.45;103729.88;4997648;28;20034;-74
2023/02/12 02:31:02;;;;;;;5.70;2.65;;;;;;;18.51;40.20;103739.59;4999324;28;20038;-76
2023/02/12 02:33:46;;;;;;;4.63;2.70;;;;;;;18.51;40.17;103737.78;4987401;28;20131;-76
2023/02/12 02:36:36;;;;;;;4.80;2.60;;;;;;;18.40;40.44;103721.50;4998509;28;20112;-76
2023/02/12 02:39:22;;;;;;;4.53;2.47;;;;;;;18.47;40.36;103734.41;5005277;28;20287;-77
2023/02/12 02:42:07;;;;;;;5.65;2.42;;;;;;;18.44;40.45;103726.63;4998121;28;20053;-74
2023/02/12 02:44:50;;;;;;;;;;;;;;;18.51;40.46;103726.38;4999079;28;20410;-77
2023/02/12 02:47:20;;;;;;;4.65;2.58;;;;;;;18.47;40.44;103734.41;4996806;28;20361;-74
2023/02/12 02:49:56;;;;;;;4.95;2.75;;;;;;;18.42;40.18;103731.09;4996640;28;20431;-77
2023/02/12 02:53:01;;;;;;;4.53;2.50;;;;;;;18.43;40.44;103732.81;4997787;28;20044;-76
2023/02/12 02:55:29;;;;;;;;;;;;;;;18.47;40.49;103734.41;4988718;28;20069;-75
2023/02/12 02:58:00;;;;;;;5.22;2.60;;;;;;;18.42;40.41;103736.38;4998547;28;20001;-75
2023/02/12 03:00:57;;;;;;;4.60;2.47;;;;;;;18.43;40.45;103737.22;4998358;28;20073;-76
2023/02/12 03:03:30;;;;;;;6.82;3.55;;;;;;;18.39;40.54;103722.41;4998611;28;20580;-75
2023/02/12 03:06:03;;;;;;;5.18;2.58;;;;;;;18.38;40.48;103733.91;4998409;28;20034;-77
2023/02/12 03:08:36;;;;;;;5.47;2.78;;;;;;;18.36;40.61;103720.75;4997746;28;20033;-76
2023/02/12 03:11:23;;;;;;;4.47;2.60;;;;;;;18.35;40.45;103716.38;4996654;28;20045;-76
2023/02/12 03:14:04;;;;;;;4.40;2.60;;;;;;;18.37;40.36;103725.09;5012996;28;20108;-76
2023/02/12 03:16:33;;;;;;;5.60;2.78;;;;;;;18.33;40.45;103720.88;4998824;28;20088;-76
2023/02/12 03:19:12;;;;;;;5.00;2.80;;;;;;;18.38;40.26;103725.97;4998650;28;20056;-75
2023/02/12 03:22:03;;;;;;;6.43;2.83;;;;;;;18.37;40.44;103726.88;4997827;28;20045;-75
2023/02/12 03:24:37;;;;;;;4.80;2.55;;;;;;;18.34;40.16;103721.72;4993830;28;20038;-75
2023/02/12 03:27:05;;;;;;;5.75;2.90;;;;;;;18.36;40.13;103723.41;4993090;28;20038;-76
2023/02/12 03:29:31;;;;;;;4.03;2.47;;;;;;;18.33;40.26;103717.38;4993522;28;20120;-75
2023/02/12 03:32:23;;;;;;;4.80;3.00;;;;;;;18.34;40.35;103721.72;5001041;28;20061;-75
2023/02/12 03:35:01;;;;;;;5.28;2.53;;;;;;;18.33;40.21;103722.66;4995108;28;20053;-77
2023/02/12 03:37:33;;;;;;;4.43;2.65;;;;;;;18.33;40.33;103728.78;4995279;28;20043;-76
2023/02/12 03:40:28;;;;;;;4.50;2.67;;;;;;;18.34;39.95;103725.25;4994894;28;20038;-75
2023/02/12 03:43:01;;;;;;;4.57;2.92;;;;;;;18.36;40.16;103725.16;4994857;28;20117;-75
2023/02/12 03:45:26;;;;;;;4.30;2.60;;;;;;;18.31;40.19;103718.28;4995100;28;20497;-76
2023/02/12 03:48:10;;;;;;;4.60;2.63;;;;;;;18.34;40.23;103719.09;5000692;28;20030;-76
2023/02/12 03:50:46;;;;;;;4.95;2.85;;;;;;;18.31;40.18;103713.00;4995320;28;20470;-75
2023/02/12 03:53:12;;;;;;;5.07;2.40;;;;;;;18.26;40.45;103707.03;4994544;28;20080;-74
2023/02/12 03:55:41;;;;;;;4.03;2.40;;;;;;;18.28;40.34;103706.97;4994471;28;20054;-75
2023/02/12 03:58:10;;;;;;;4.80;2.40;;;;;;;18.32;40.25;103732.34;4994209;28;20034;-76
2023/02/12 04:00:37;;;;;;;4.40;2.42;;;;;;;18.27;40.19;103723.72;4993908;28;20034;-77
2023/02/12 04:03:04;;;;;;;4.95;2.60;;;;;;;18.30;40.36;103723.63;4994703;28;20375;-75
2023/02/12 04:05:29;;;;;;;5.28;2.28;;;;;;;18.31;40.25;103717.44;4993233;28;20038;-76
2023/02/12 04:07:57;;;;;;;4.35;2.63;;;;;;;18.29;40.25;103722.78;4995064;28;20038;-77
2023/02/12 04:10:34;;;;;;;5.32;2.40;;;;;;;18.28;40.14;103722.81;4993184;28;20038;-77
2023/02/12 04:13:31;;;;;;;5.22;2.80;;;;;;;18.20;40.08;103712.53;4994143;28;20496;-76
2023/02/12 04:16:11;;;;;;;5.00;2.65;;;;;;;18.28;40.03;103728.94;4999901;28;20038;-74
2023/02/12 04:18:45;;;;;;;5.05;2.40;;;;;;;18.24;40.10;103722.06;4993535;28;20457;-75
2023/02/12 04:21:40;;;;;;;4.30;2.55;;;;;;;18.28;40.01;103736.03;4993320;28;20107;-76
2023/02/12 04:24:43;;;;;;;4.57;2.30;;;;;;;18.18;40.06;103717.00;4992781;28;20037;-78
2023/02/12 04:27:21;;;;;;;4.95;2.75;;;;;;;18.23;40.17;103728.28;4993732;28;20033;-76
2023/02/12 04:29:53;;;;;;;5.00;2.55;;;;;;;18.23;40.00;103732.66;4994492;28;20041;-76
2023/02/12 04:32:41;;;;;;;4.53;2.50;;;;;;;18.25;40.07;103746.69;4994355;28;20390;-76
2023/02/12 04:35:30;;;;;;;4.50;2.50;;;;;;;18.25;40.12;103744.91;4993827;28;20034;-76
2023/02/12 04:38:04;;;;;;;4.38;2.42;;;;;;;18.16;40.19;103732.03;4992995;28;20034;-78
2023/02/12 04:40:30;;;;;;;4.55;2.38;;;;;;;18.21;40.22;103740.63;4994889;28;20038;-80
2023/02/12 04:42:55;;;;;;;4.28;2.40;;;;;;;18.20;40.39;103743.34;4993918;28;20041;-74
2023/02/12 04:45:27;;;;;;;4.50;2.28;;;;;;;18.22;40.14;103746.81;4993215;28;20406;-78
2023/02/12 04:47:53;;;;;;;4.55;2.40;;;;;;;18.22;40.20;103750.28;4994212;28;20084;-74
2023/02/12 04:50:18;;;;;;;4.22;2.30;;;;;;;18.20;40.04;103743.34;4993665;28;20509;-75
2023/02/12 04:52:44;;;;;;;4.30;2.60;;;;;;;18.22;39.95;103750.28;4993478;28;20034;-75
2023/02/12 04:55:09;;;;;;;4.60;2.55;;;;;;;18.20;40.09;103746.84;4992709;28;20451;-76
2023/02/12 04:57:35;;;;;;;4.60;2.47;;;;;;;18.21;40.06;103750.34;4999964;28;20064;-76
2023/02/12 05:00:00;;;;;;;5.20;2.83;;;;;;;18.19;40.13;103746.91;4993384;28;20034;-80
2023/02/12 05:02:25;;;;;;;4.80;2.35;;;;;;;18.17;40.12;103746.97;4993987;28;20073;-76
2023/02/12 05:04:51;;;;;;;5.15;2.83;;;;;;;18.16;40.24;103744.38;4993302;28;20061;-77
2023/02/12 05:07:16;;;;;;;4.43;2.65;;;;;;;18.16;39.86;103742.59;4993682;28;20858;-75
2023/02/12 05:09:41;;;;;;;4.38;2.40;;;;;;;18.16;40.02;103750.50;4993744;28;20033;-79
2023/02/12 05:12:07;;;;;;;5.75;2.60;;;;;;;18.14;40.20;103744.44;4992356;28;20397;-76
2023/02/12 05:14:32;;;;;;;3.95;2.42;;;;;;;18.16;40.11;103753.16;4992503;28;20056;-79
2023/02/12 05:16:58;;;;;;;4.22;2.50;;;;;;;18.18;40.08;103751.31;4993157;28;20042;-77
2023/02/12 05:19:23;;;;;;;4.93;2.65;;;;;;;18.17;40.10;103754.03;4993315;28;20798;-77
2023/02/12 05:21:50;;;;;;;5.57;2.55;;;;;;;18.15;39.96;103750.56;4993229;28;20463;-78
2023/02/12 05:24:15;;;;;;;4.68;2.55;;;;;;;18.14;40.06;103752.34;4991605;28;20097;-79
2023/02/12 05:26:41;;;;;;;4.57;2.72;;;;;;;18.12;40.12;103748.91;4991090;28;20359;-74
2023/02/12 05:29:06;;;;;;;5.45;3.17;;;;;;;18.15;39.97;103751.44;4994180;28;20467;-78
2023/02/12 05:31:32;;;;;;;4.32;2.80;;;;;;;18.14;39.98;103752.34;4992434;28;20113;-77
2023/02/12 05:33:58;;;;;;;5.03;2.63;;;;;;;18.13;40.26;103756.78;4990993;28;20026;-77
2023/02/12 05:36:23;;;;;;;5.03;3.08;;;;;;;18.15;40.07;103755.84;4992369;28;20033;-74
2023/02/12 05:38:50;;;;;;;4.72;2.70;;;;;;;18.12;40.12;103757.69;4992070;28;20049;-77
2023/02/12 05:41:18;;;;;;;4.53;2.50;;;;;;;18.12;39.91;103760.31;4991875;28;20065;-76
2023/02/12 05:43:44;;;;;;;4.20;2.50;;;;;;;18.09;39.76;103754.28;4992104;28;20026;-79
2023/02/12 05:46:10;;;;;;;5.15;2.75;;;;;;;18.09;39.94;103752.50;4991524;28;20038;-74
2023/02/12 05:48:37;;;;;;;4.65;2.30;;;;;;;18.05;40.06;103744.75;4993065;28;20109;-78
2023/02/12 05:51:10;;;;;;;5.22;2.75;;;;;;;18.06;39.87;103747.34;4991264;28;20034;-77
2023/02/12 05:53:36;;;;;;;5.15;2.80;;;;;;;18.09;39.86;103755.16;4992085;28;20042;-75
2023/02/12 05:56:09;;;;;;;4.88;2.70;;;;;;;18.11;39.80;103761.22;4991560;28;20199;-75
2023/02/12 05:58:35;;;;;;;4.05;2.60;;;;;;;18.10;40.19;103761.28;4991920;28;20030;-78
2023/02/12 06:01:00;;;;;;;4.70;2.35;;;;;;;18.10;40.51;103762.16;4991457;28;20145;-77
2023/02/12 06:03:26;;;;;;;4.00;1.90;;;;;;;18.12;40.36;103762.09;4991046;28;20031;-77
2023/02/12 06:05:51;;;;;;;4.30;2.20;;;;;;;18.12;40.44;103759.47;4993137;28;20045;-75
2023/02/12 06:08:16;;;;;;;4.10;2.00;;;;;;;18.11;40.63;103758.59;4992098;28;20113;-77
2023/02/12 06:10:42;;;;;;;4.32;2.20;;;;;;;18.13;40.68;103758.53;4993239;28;20265;-75
2023/02/12 06:13:07;;;;;;;4.32;1.95;;;;;;;18.18;40.59;103769.78;4992512;28;20038;-75
2023/02/12 06:15:35;;;;;;;4.93;2.20;;;;;;;18.16;40.68;103766.34;4990430;28;20549;-78
2023/02/12 06:18:01;;;;;;;3.25;1.83;;;;;;;18.21;40.63;103768.81;4991079;28;20141;-75
2023/02/12 06:20:26;;;;;;;3.88;2.03;;;;;;;18.24;40.48;103769.56;4991744;28;20165;-76
2023/02/12 06:22:51;;;;;;;3.80;1.95;;;;;;;18.25;40.57;103765.16;4992870;28;20061;-75
2023/02/12 06:25:17;;;;;;;3.92;2.20;;;;;;;18.28;40.28;103771.19;4998369;28;20380;-79
2023/02/12 06:27:42;;;;;;;4.07;2.00;;;;;;;18.30;40.32;103769.34;4991197;28;20034;-76
2023/02/12 06:30:08;;;;;;;4.13;1.80;;;;;;;18.32;40.49;103769.31;4998566;28;20487;-76
2023/02/12 06:32:33;;;;;;;4.38;2.10;;;;;;;18.36;40.29;103768.28;4990514;28;20026;-77
2023/02/12 06:34:58;;;;;;;5.60;2.17;;;;;;;18.39;40.49;103768.19;4996390;28;20229;-78
2023/02/12 06:37:24;;;;;;;3.30;1.70;;;;;;;18.42;40.22;103776.00;4990977;28;20045;-77
2023/02/12 06:39:49;;;;;;;4.75;2.03;;;;;;;18.44;40.21;103774.13;4991775;28;20619;-75
2023/02/12 06:42:14;;;;;;;3.70;1.90;;;;;;;18.48;40.38;103783.69;4991562;28;20479;-75
2023/02/12 06:44:40;;;;;;;3.60;2.00;;;;;;;18.49;40.17;103774.81;4996436;28;20034;-77
2023/02/12 06:47:05;;;;;;;3.50;1.73;;;;;;;18.53;40.33;103780.00;4990833;28;20149;-75
2023/02/12 06:49:30;;;;;;;4.03;1.85;;;;;;;18.50;40.40;103778.34;4989530;28;20483;-75
2023/02/12 06:51:56;;;;;;;3.65;1.95;;;;;;;18.51;40.22;103781.84;4990070;28;20084;-77
2023/02/12 06:54:21;;;;;;;4.07;1.88;;;;;;;18.52;40.45;103780.91;4990819;28;20093;-75
2023/02/12 06:56:46;;;;;;;3.63;1.90;;;;;;;18.46;40.15;103767.00;4989761;28;20034;-75
2023/02/12 06:59:14;;;;;;;3.28;1.70;;;;;;;18.54;40.05;103787.03;4991333;28;20090;-78
2023/02/12 07:01:40;;;;;;;3.80;2.10;;;;;;;18.55;40.17;103792.25;4993189;28;20038;-76
2023/02/12 07:04:05;;;;;;;3.80;1.83;;;;;;;18.54;40.03;103787.88;4993812;28;20566;-77
2023/02/12 07:06:33;;;;;;;3.78;1.75;;;;;;;18.57;40.04;103792.19;4993433;28;20081;-76
2023/02/12 07:08:58;;;;;;;3.42;1.83;;;;;;;18.53;40.17;103788.78;4994565;28;20046;-77
2023/02/12 07:11:29;;;;;;;4.07;1.95;;;;;;;18.56;40.20;103795.72;4994034;28;20081;-79
2023/02/12 07:13:54;;;;;;;3.50;1.88;;;;;;;18.59;40.10;103798.25;4996161;28;20096;-74
2023/02/12 07:16:20;;;;;;;3.35;1.80;;;;;;;18.57;40.19;103793.03;4994958;28;20042;-78
2023/02/12 07:18:45;;;;;;;4.32;1.80;;;;;;;18.59;40.04;103796.47;4994455;28;20194;-75
2023/02/12 07:21:12;;;;;;;4.00;1.70;;;;;;;18.60;40.30;103802.66;5000825;28;20099;-76
2023/02/12 07:23:38;;;;;;;3.33;1.70;;;;;;;18.58;40.12;103802.69;4996318;28;20034;-75
2023/02/12 07:26:21;;;;;;;3.78;1.88;;;;;;;18.58;40.23;103797.41;4994394;28;20035;-78
2023/02/12 07:28:46;;;;;;;3.35;1.95;;;;;;;18.60;40.15;103798.22;4994594;28;20038;-78
2023/02/12 07:31:15;;;;;;;4.15;1.80;;;;;;;18.62;40.01;103806.06;5000556;28;20088;-75
2023/02/12 07:33:41;;;;;;;3.17;1.80;;;;;;;18.62;39.98;103806.06;4995209;28;20041;-74
2023/02/12 07:36:10;;;;;;;3.63;1.73;;;;;;;18.62;40.16;103812.22;4994554;28;20038;-76
2023/02/12 07:38:38;;;;;;;3.88;1.90;;;;;;;18.61;39.99;103806.97;4993624;28;20030;-80
2023/02/12 07:41:21;;;;;;;3.03;1.80;;;;;;;18.55;40.27;103805.44;4995820;28;20030;-74
2023/02/12 07:43:51;;;;;;;3.90;1.90;;;;;;;18.58;40.09;103818.53;4995076;28;20076;-77
2023/02/12 07:46:21;;;;;;;4.65;2.40;;;;;;;18.59;40.17;103816.75;4994612;28;20489;-74
2023/02/12 07:48:46;;;;;;;3.97;2.08;;;;;;;18.57;39.87;103822.09;4994948;28;20037;-73
2023/02/12 07:51:15;;;;;;;5.55;1.95;;;;;;;18.56;40.23;103815.06;4993762;28;20080;-75
2023/02/12 07:53:41;;;;;;;4.57;2.08;;;;;;;18.59;40.32;103824.69;4995070;28;20077;-73
2023/02/12 07:56:19;;;;;;;3.15;1.90;;;;;;;18.53;40.52;103814.34;4994924;28;20042;-76
2023/02/12 07:58:46;;;;;;;5.50;1.98;;;;;;;18.58;40.64;103817.66;4993801;28;20030;-74
2023/02/12 08:01:41;;;;;;;3.38;1.83;;;;;;;18.60;40.77;103816.69;4994098;28;20042;-75
2023/02/12 08:04:13;;;;;;;4.47;2.00;;;;;;;18.63;40.76;103821.03;5002493;28;20050;-76
2023/02/12 08:06:44;;;;;;;3.80;1.85;;;;;;;18.65;41.00;103821.81;4993987;28;20037;-79
2023/02/12 08:09:13;;;;;;;4.07;1.88;;;;;;;18.61;41.00;103810.50;4993793;28;20149;-74
2023/02/12 08:11:39;;;;;;;4.88;1.92;;;;;;;18.65;40.92;103816.53;4993694;28;20061;-74
2023/02/12 08:14:05;;;;;;;4.95;1.83;;;;;;;18.63;41.22;103815.75;4993448;28;20050;-74
2023/02/12 08:16:36;;;;;;;3.72;1.92;;;;;;;18.67;41.00;103823.50;4993630;28;20092;-74
2023/02/12 08:19:01;;;;;;;4.28;2.10;;;;;;;18.64;41.14;103815.69;4994043;28;20033;-73
2023/02/12 08:21:27;;;;;;;3.85;1.90;;;;;;;18.70;41.12;103826.94;4993466;28;20682;-75
2023/02/12 08:23:54;;;;;;;3.70;1.70;;;;;;;18.68;41.12;103821.72;4993828;28;20145;-76
2023/02/12 08:26:21;;;;;;;5.05;2.10;;;;;;;18.73;41.16;103830.31;4994655;28;20026;-75
2023/02/12 08:28:50;;;;;;;6.75;2.00;;;;;;;18.72;41.54;103825.09;4991900;28;20617;-74
2023/02/12 08:31:18;;;;;;;3.63;1.80;;;;;;;18.74;41.45;103828.53;4998572;28;20062;-78
2023/02/12 08:33:45;;;;;;;4.82;2.03;;;;;;;18.73;41.19;103825.03;4992835;28;20471;-73
2023/02/12 08:36:14;;;;;;;5.03;1.95;;;;;;;18.81;40.95;103832.69;4992596;28;20026;-71
2023/02/12 08:38:40;;;;;;;4.63;2.00;;;;;;;18.79;41.22;103840.66;4992544;28;20261;-71
2023/02/12 08:41:09;;;;;;;3.90;1.88;;;;;;;18.82;41.32;103845.00;4990425;28;20052;-72
2023/02/12 08:43:35;;;;;;;5.15;2.40;;;;;;;18.83;41.27;103844.03;4992176;28;20030;-76
2023/02/12 08:46:09;;;;;;;4.05;1.92;;;;;;;18.84;41.32;103851.94;4993287;28;20134;-75
2023/02/12 08:48:35;;;;;;;5.28;2.20;;;;;;;18.91;41.09;103849.09;4993257;28;20081;-75
2023/02/12 08:51:10;;;;;;;4.47;2.17;;;;;;;18.93;40.94;103850.75;4992479;28;20491;-74
2023/02/12 08:53:37;;;;;;;5.50;2.30;;;;;;;19.01;41.03;103843.41;4993445;28;20475;-72
2023/02/12 08:56:03;;;;;;;4.63;2.10;;;;;;;18.93;41.12;103847.22;4993142;28;20033;-75
2023/02/12 08:58:28;;;;;;;6.75;1.92;;;;;;;18.86;41.13;103849.25;4990614;28;20089;-71
2023/02/12 09:00:54;;;;;;;4.72;2.20;;;;;;;18.87;41.20;103853.63;4992516;28;20041;-72
2023/02/12 09:03:19;;;;;;;4.35;1.63;;;;;;;18.87;41.20;103850.09;4992377;28;20035;-71
2023/02/12 09:05:44;;;;;;;5.05;2.10;;;;;;;18.80;40.88;103842.41;4992750;28;20066;-71
2023/02/12 09:08:09;;;;;;;3.90;1.80;;;;;;;18.83;41.05;103852.84;4991803;28;20462;-71
2023/02/12 09:10:42;;;;;;;4.45;1.73;;;;;;;18.81;41.14;103853.81;4998814;28;20284;-71
2023/02/12 09:13:08;;;;;;;7.43;1.90;;;;;;;18.77;41.10;103844.28;4991380;28;20038;-72
2023/02/12 09:15:38;;;;;;;5.20;2.05;;;;;;;18.79;41.28;103853.03;4992309;28;20704;-73
2023/02/12 09:18:03;;;;;;;4.15;2.17;;;;;;;18.78;41.15;103846.84;4999341;28;20100;-72
2023/02/12 09:20:29;;;;;;;6.28;2.33;;;;;;;18.79;40.95;103855.66;4991773;28;20042;-71
2023/02/12 09:22:56;;;;;;;4.70;1.90;;;;;;;18.79;40.93;103845.09;4992489;28;20038;-68
2023/02/12 09:25:21;;;;;;;4.40;2.30;;;;;;;18.79;40.87;103851.22;4991877;28;20036;-73
2023/02/12 09:27:47;;;;;;;8.30;2.58;;;;;;;18.79;40.99;103853.88;4993697;28;20470;-73
2023/02/12 09:30:12;;;;;;;5.13;2.03;;;;;;;18.79;40.78;103858.31;4991589;28;20034;-73
2023/02/12 09:32:38;;;;;;;5.82;2.13;;;;;;;18.79;40.87;103864.44;4992036;28;20108;-74
2023/02/12 09:35:04;;;;;;;3.78;2.08;;;;;;;18.76;40.87;103853.97;4998215;28;20388;-73
2023/02/12 09:37:29;;;;;;;3.97;2.20;;;;;;;18.72;40.52;103852.34;4992347;28;20042;-74
2023/02/12 09:39:54;;;;;;;4.80;1.95;;;;;;;18.74;40.98;103857.59;4991803;28;20038;-72
2023/02/12 09:43:07;;;;;;;4.35;2.13;;;;;;;18.76;40.85;103861.91;4991930;28;20038;-73
2023/02/12 09:46:02;;;;;;;4.10;2.25;;;;;;;18.74;40.92;103858.47;4985718;28;20103;-72
2023/02/12 09:48:46;;;;;;;5.05;2.20;;;;;;;18.76;40.85;103861.06;4993349;28;20467;-73
2023/02/12 09:51:12;;;;;;;5.63;2.10;;;;;;;18.74;41.11;103862.88;4991939;28;20096;-73
2023/02/12 09:53:42;;;;;;;3.80;2.10;;;;;;;18.73;41.11;103863.81;4992379;28;20044;-73
2023/02/12 09:56:19;;;;;;;4.30;2.22;;;;;;;18.70;40.86;103859.50;4992072;28;20030;-73
2023/02/12 09:58:50;;;;;;;5.97;2.17;;;;;;;18.68;40.92;103850.75;4998097;28;20089;-74
2023/02/12 10:01:18;;;;;;;4.43;2.10;;;;;;;18.72;41.11;103860.28;5007352;28;20030;-74
2023/02/12 10:03:46;;;;;;;4.95;2.10;;;;;;;18.69;40.79;103855.13;4991141;28;20686;-75
2023/02/12 10:06:19;;;;;;;4.20;2.40;;;;;;;18.72;40.96;103867.34;4990592;28;20040;-73
2023/02/12 10:09:08;;;;;;;6.35;2.20;;;;;;;18.63;41.05;103860.66;4990901;28;20176;-73
2023/02/12 10:11:47;;;;;;;4.97;2.17;;;;;;;18.69;41.02;103873.59;4991266;28;20035;-73
2023/02/12 10:14:40;;;;;;;6.93;2.00;;;;;;;18.71;40.83;103865.63;4991791;28;20057;-73
2023/02/12 10:17:16;;;;;;;4.30;2.35;;;;;;;18.69;40.83;103873.59;4991378;28;20050;-76
2023/02/12 10:20:01;;;;;;;4.95;2.40;;;;;;;18.70;40.91;103874.50;4992642;28;20443;-74
2023/02/12 10:22:41;;;;;;;4.00;2.25;;;;;;;18.71;40.78;103877.06;4993335;28;20324;-72
2023/02/12 10:25:34;;;;;;;4.80;2.38;;;;;;;18.72;40.78;103876.13;4991789;28;20505;-69
2023/02/12 10:28:08;;;;;;;4.15;2.08;;;;;;;18.73;40.90;103882.31;4992544;28;20054;-71
2023/02/12 10:30:45;;;;;;;4.93;2.13;;;;;;;18.77;40.86;103873.34;4998311;28;20062;-71
2023/02/12 10:33:16;;;;;;;4.65;2.10;;;;;;;18.75;40.92;103868.09;4992216;28;20327;-70
2023/02/12 10:35:47;;;;;;;5.50;2.50;;;;;;;18.71;40.96;103861.22;4991140;28;20034;-70
2023/02/12 10:38:20;;;;;;;5.85;2.40;;;;;;;18.74;41.26;103857.59;4995320;28;20038;-74
2023/02/12 10:40:46;;;;;;;5.40;2.42;;;;;;;18.78;41.08;103869.78;4995639;28;20061;-72
2023/02/12 10:43:12;;;;;;;4.97;2.28;;;;;;;18.78;41.00;103865.34;4994534;28;20034;-73
2023/02/12 10:45:39;;;;;;;4.00;2.22;;;;;;;18.76;41.21;103859.28;4995032;28;20031;-72
2023/02/12 10:48:18;;;;;;;6.60;2.60;;;;;;;18.79;41.17;103866.22;5001520;28;21040;-74
2023/02/12 10:51:01;;;;;;;5.80;2.90;;;;;;;18.71;41.05;103845.38;4995467;28;20931;-74
2023/02/12 10:53:35;;;;;;;7.25;3.00;;;;;;;18.80;41.09;103860.00;4995004;28;20034;-70
2023/02/12 10:56:17;;;;;;;7.35;2.92;;;;;;;18.89;41.14;103864.16;4994452;28;20038;-73
2023/02/12 10:58:48;;;;;;;9.20;3.72;;;;;;;18.85;41.00;103866.03;4994350;28;20030;-74
2023/02/12 11:01:24;;;;;;;6.40;2.60;;;;;;;18.76;41.45;103853.13;4994739;28;20042;-74
2023/02/12 11:03:51;;;;;;;8.10;2.53;;;;;;;18.79;41.16;103861.81;4996128;28;20049;-72
2023/02/12 11:06:24;;;;;;;4.50;2.58;;;;;;;18.75;41.10;103859.31;4995132;28;20045;-73
2023/02/12 11:08:50;;;;;;;5.57;2.60;;;;;;;18.73;41.09;103855.88;4995002;28;20041;-74
2023/02/12 11:11:21;;;;;;;7.32;2.80;;;;;;;18.76;41.21;103864.56;4993914;28;20038;-72
2023/02/12 11:13:55;;;;;;;6.38;2.50;;;;;;;18.72;41.25;103849.72;5001366;28;20422;-72
2023/02/12 11:16:31;;;;;;;;;;;;;;;18.79;41.07;103853.03;4995487;28;20124;-72
2023/02/12 11:19:18;;;;;;;5.93;2.83;;;;;;;18.74;40.97;103849.66;4994887;28;19917;-71
2023/02/12 11:21:43;;;;;;;4.70;2.35;;;;;;;18.73;40.86;103842.69;4994857;28;20060;-70
2023/02/12 11:24:29;;;;;;;6.45;2.63;;;;;;;18.74;41.10;103850.53;4993558;28;20034;-72
2023/02/12 11:27:10;;;;;;;5.15;2.78;;;;;;;18.72;40.97;103854.16;4995739;28;20037;-71
2023/02/12 11:29:35;;;;;;;6.55;2.50;;;;;;;18.70;41.13;103854.22;4995431;28;20665;-72
2023/02/12 11:32:04;;;;;;;6.68;2.60;;;;;;;18.69;41.15;103844.53;4994471;28;21059;-72
2023/02/12 11:34:29;;;;;;;8.18;2.83;;;;;;;18.67;41.00;103836.72;4994626;28;20030;-72
2023/02/12 11:36:56;;;;;;;8.20;2.70;;;;;;;18.66;41.06;103842.91;4994110;28;20038;-71
2023/02/12 11:39:29;;;;;;;5.60;2.65;;;;;;;18.72;41.17;103846.22;4995186;28;20095;-71
2023/02/12 11:42:03;;;;;;;6.22;2.70;;;;;;;18.65;40.95;103838.53;4994850;28;20441;-71
2023/02/12 11:44:38;;;;;;;5.40;2.40;;;;;;;18.61;40.93;103823.72;4994161;28;20395;-71
2023/02/12 11:47:09;;;;;;;4.30;2.55;;;;;;;18.66;41.08;103836.75;4993475;28;20026;-72
2023/02/12 11:49:48;;;;;;;6.35;2.80;;;;;;;18.68;41.00;103838.41;4994617;28;20041;-71